sensor_id;sensor_type;location;lat;lon;timestamp;temperature;humidity
20524;DHT22;10420;48.542;12.270;2022-11-15T00:01:58;3.20;99.90
20524;DHT22;10420;48.542;12.270;2022-11-15T00:06:59;3.20;99.90
20524;DHT22;10420;48.542;12.270;2022-11-15T00:12:00;3.10;99.90
20524;DHT22;10420;48.542;12.270;2022-11-15T00:17:00;3.10;99.90
20524;DHT22;10420;48.542;12.270;2022-11-15T00:22:01;3.00;99.90
20524;DHT22;10420;48.542;12.270;2022-11-15T00:27:02;3.00;99.90
20524;DHT22;10420;48.542;12.270;2022-11-15T00:32:03;3.10;99.90
20524;DHT22;10420;48.542;12.270;2022-11-15T00:37:03;3.00;99.90
20524;DHT22;10420;48.542;12.270;2022-11-15T00:42:04;2.90;99.90
20524;DHT22;10420;48.542;12.270;2022-11-15T00:47:05;2.80;99.90
20524;DHT22;10420;48.542;12.270;2022-11-15T00:52:05;2.80;99.90
20524;DHT22;10420;48.542;12.270;2022-11-15T00:57:06;2.80;99.90
20524;DHT22;10420;48.542;12.270;2022-11-15T01:02:06;2.80;99.90
20524;DHT22;10420;48.542;12.270;2022-11-15T01:07:07;2.80;99.90
20524;DHT22;10420;48.542;12.270;2022-11-15T01:12:08;2.80;99.90
20524;DHT22;10420;48.542;12.270;2022-11-15T01:17:08;2.70;99.90
20524;DHT22;10420;48.542;12.270;2022-11-15T01:22:09;2.70;99.90
20524;DHT22;10420;48.542;12.270;2022-11-15T01:27:09;2.70;99.90
20524;DHT22;10420;48.542;12.270;2022-11-15T01:32:10;2.70;99.90
20524;DHT22;10420;48.542;12.270;2022-11-15T01:37:11;2.60;99.90
20524;DHT22;10420;48.542;12.270;2022-11-15T01:42:15;2.60;99.90
20524;DHT22;10420;48.542;12.270;2022-11-15T01:52:25;2.60;99.90
20524;DHT22;10420;48.542;12.270;2022-11-15T01:57:27;2.60;99.90
20524;DHT22;10420;48.542;12.270;2022-11-15T02:02:28;2.60;99.90
20524;DHT22;10420;48.542;12.270;2022-11-15T02:07:29;2.60;99.90
20524;DHT22;10420;48.542;12.270;2022-11-15T02:12:31;2.60;99.90
20524;DHT22;10420;48.542;12.270;2022-11-15T02:23:02;2.40;99.90
20524;DHT22;10420;48.542;12.270;2022-11-15T02:33:33;2.40;99.90
20524;DHT22;10420;48.542;12.270;2022-11-15T02:38:54;2.40;99.90
20524;DHT22;10420;48.542;12.270;2022-11-15T02:44:00;2.40;99.90
20524;DHT22;10420;48.542;12.270;2022-11-15T02:49:03;2.40;99.90
20524;DHT22;10420;48.542;12.270;2022-11-15T02:54:04;2.40;99.90
20524;DHT22;10420;48.542;12.270;2022-11-15T03:04:52;2.50;99.90
20524;DHT22;10420;48.542;12.270;2022-11-15T03:10:11;2.60;99.90
20524;DHT22;10420;48.542;12.270;2022-11-15T03:15:41;2.50;99.90
20524;DHT22;10420;48.542;12.270;2022-11-15T03:20:44;2.50;99.90
20524;DHT22;10420;48.542;12.270;2022-11-15T03:25:48;2.50;99.90
20524;DHT22;10420;48.542;12.270;2022-11-15T03:30:52;2.40;99.90
20524;DHT22;10420;48.542;12.270;2022-11-15T03:35:54;2.40;99.90
20524;DHT22;10420;48.542;12.270;2022-11-15T03:46:28;2.30;99.90
20524;DHT22;10420;48.542;12.270;2022-11-15T03:51:29;2.30;99.90
20524;DHT22;10420;48.542;12.270;2022-11-15T03:56:29;2.30;99.90
20524;DHT22;10420;48.542;12.270;2022-11-15T04:01:30;2.20;99.90
20524;DHT22;10420;48.542;12.270;2022-11-15T04:06:31;2.30;99.90
20524;DHT22;10420;48.542;12.270;2022-11-15T04:11:31;2.20;99.90
20524;DHT22;10420;48.542;12.270;2022-11-15T04:16:32;2.20;99.90
20524;DHT22;10420;48.542;12.270;2022-11-15T04:21:32;2.10;99.90
20524;DHT22;10420;48.542;12.270;2022-11-15T04:26:52;2.00;99.90
20524;DHT22;10420;48.542;12.270;2022-11-15T04:31:52;1.90;99.90
20524;DHT22;10420;48.542;12.270;2022-11-15T04:36:53;2.00;99.90
20524;DHT22;10420;48.542;12.270;2022-11-15T04:42:12;1.90;99.90
20524;DHT22;10420;48.542;12.270;2022-11-15T04:47:12;1.90;99.90
20524;DHT22;10420;48.542;12.270;2022-11-15T04:52:14;1.90;99.90
20524;DHT22;10420;48.542;12.270;2022-11-15T04:57:14;1.90;99.90
20524;DHT22;10420;48.542;12.270;2022-11-15T05:02:15;1.90;99.90
20524;DHT22;10420;48.542;12.270;2022-11-15T05:07:16;2.00;99.90
20524;DHT22;10420;48.542;12.270;2022-11-15T05:12:16;1.90;99.90
20524;DHT22;10420;48.542;12.270;2022-11-15T05:17:17;1.90;99.90
20524;DHT22;10420;48.542;12.270;2022-11-15T05:22:18;1.90;99.90
20524;DHT22;10420;48.542;12.270;2022-11-15T05:27:19;1.80;99.90
20524;DHT22;10420;48.542;12.270;2022-11-15T05:32:20;1.70;99.90
20524;DHT22;10420;48.542;12.270;2022-11-15T05:37:21;1.80;99.90
20524;DHT22;10420;48.542;12.270;2022-11-15T05:42:22;1.60;99.90
20524;DHT22;10420;48.542;12.270;2022-11-15T05:47:25;1.60;99.90
20524;DHT22;10420;48.542;12.270;2022-11-15T05:52:30;1.60;99.90
20524;DHT22;10420;48.542;12.270;2022-11-15T05:57:31;1.60;99.90
20524;DHT22;10420;48.542;12.270;2022-11-15T06:02:32;1.70;99.90
20524;DHT22;10420;48.542;12.270;2022-11-15T06:07:33;1.60;99.90
20524;DHT22;10420;48.542;12.270;2022-11-15T06:12:33;1.60;99.90
20524;DHT22;10420;48.542;12.270;2022-11-15T06:17:34;1.50;99.90
20524;DHT22;10420;48.542;12.270;2022-11-15T06:22:35;1.30;99.90
20524;DHT22;10420;48.542;12.270;2022-11-15T06:27:35;1.50;99.90
20524;DHT22;10420;48.542;12.270;2022-11-15T06:32:36;1.50;99.90
20524;DHT22;10420;48.542;12.270;2022-11-15T06:37:36;1.60;99.90
20524;DHT22;10420;48.542;12.270;2022-11-15T06:42:37;1.70;99.90
20524;DHT22;10420;48.542;12.270;2022-11-15T06:47:47;1.60;99.90
20524;DHT22;10420;48.542;12.270;2022-11-15T06:52:48;1.70;99.90
20524;DHT22;10420;48.542;12.270;2022-11-15T06:57:52;1.80;99.90
20524;DHT22;10420;48.542;12.270;2022-11-15T07:02:53;1.80;99.90
20524;DHT22;10420;48.542;12.270;2022-11-15T07:07:55;1.80;99.90
20524;DHT22;10420;48.542;12.270;2022-11-15T07:12:56;1.90;99.90
20524;DHT22;10420;48.542;12.270;2022-11-15T07:18:00;2.00;99.90
20524;DHT22;10420;48.542;12.270;2022-11-15T07:23:03;2.10;99.90
20524;DHT22;10420;48.542;12.270;2022-11-15T07:28:04;2.20;99.90
20524;DHT22;10420;48.542;12.270;2022-11-15T07:33:05;2.10;99.90
20524;DHT22;10420;48.542;12.270;2022-11-15T07:38:06;2.40;99.90
20524;DHT22;10420;48.542;12.270;2022-11-15T07:43:08;2.60;99.90
20524;DHT22;10420;48.542;12.270;2022-11-15T07:48:09;2.80;99.90
20524;DHT22;10420;48.542;12.270;2022-11-15T07:53:10;3.00;99.90
20524;DHT22;10420;48.542;12.270;2022-11-15T07:58:11;3.30;99.90
20524;DHT22;10420;48.542;12.270;2022-11-15T08:03:14;3.20;99.90
20524;DHT22;10420;48.542;12.270;2022-11-15T08:08:15;3.70;99.90
20524;DHT22;10420;48.542;12.270;2022-11-15T08:13:16;4.10;99.90
20524;DHT22;10420;48.542;12.270;2022-11-15T08:18:16;4.30;99.90
20524;DHT22;10420;48.542;12.270;2022-11-15T08:23:17;4.60;99.90
20524;DHT22;10420;48.542;12.270;2022-11-15T08:28:18;4.90;99.90
20524;DHT22;10420;48.542;12.270;2022-11-15T08:33:18;5.20;99.90
20524;DHT22;10420;48.542;12.270;2022-11-15T08:38:19;5.70;99.90
20524;DHT22;10420;48.542;12.270;2022-11-15T08:43:20;5.80;99.90
20524;DHT22;10420;48.542;12.270;2022-11-15T08:48:20;6.10;99.90
20524;DHT22;10420;48.542;12.270;2022-11-15T08:53:21;6.40;99.90
20524;DHT22;10420;48.542;12.270;2022-11-15T08:58:22;6.70;99.90
20524;DHT22;10420;48.542;12.270;2022-11-15T09:03:22;7.50;99.90
20524;DHT22;10420;48.542;12.270;2022-11-15T09:08:24;7.70;99.90
20524;DHT22;10420;48.542;12.270;2022-11-15T09:13:24;8.40;99.90
20524;DHT22;10420;48.542;12.270;2022-11-15T09:18:25;8.50;99.90
20524;DHT22;10420;48.542;12.270;2022-11-15T09:23:27;9.70;99.90
20524;DHT22;10420;48.542;12.270;2022-11-15T09:28:29;17.90;99.90
20524;DHT22;10420;48.542;12.270;2022-11-15T09:33:29;21.10;99.90
20524;DHT22;10420;48.542;12.270;2022-11-15T09:38:30;21.80;99.90
20524;DHT22;10420;48.542;12.270;2022-11-15T09:44:00;23.20;99.90
20524;DHT22;10420;48.542;12.270;2022-11-15T09:49:00;23.30;99.90
20524;DHT22;10420;48.542;12.270;2022-11-15T09:59:29;19.60;99.90
20524;DHT22;10420;48.542;12.270;2022-11-15T10:04:37;20.70;99.90
20524;DHT22;10420;48.542;12.270;2022-11-15T10:15:06;20.20;99.90
20524;DHT22;10420;48.542;12.270;2022-11-15T10:20:24;21.20;99.90
20524;DHT22;10420;48.542;12.270;2022-11-15T10:25:27;22.20;99.90
20524;DHT22;10420;48.542;12.270;2022-11-15T10:30:46;20.40;99.90
20524;DHT22;10420;48.542;12.270;2022-11-15T10:35:47;21.30;99.90
20524;DHT22;10420;48.542;12.270;2022-11-15T10:40:48;17.90;99.90
20524;DHT22;10420;48.542;12.270;2022-11-15T10:45:48;21.50;99.90
20524;DHT22;10420;48.542;12.270;2022-11-15T10:50:51;21.90;99.90
20524;DHT22;10420;48.542;12.270;2022-11-15T10:55:57;22.00;99.90
20524;DHT22;10420;48.542;12.270;2022-11-15T11:01:19;22.00;99.90
20524;DHT22;10420;48.542;12.270;2022-11-15T11:06:20;20.20;99.90
20524;DHT22;10420;48.542;12.270;2022-11-15T11:11:21;19.80;99.90
20524;DHT22;10420;48.542;12.270;2022-11-15T11:16:39;19.80;99.90
20524;DHT22;10420;48.542;12.270;2022-11-15T11:49:08;12.30;99.90
20524;DHT22;10420;48.542;12.270;2022-11-15T11:54:34;12.40;99.90
20524;DHT22;10420;48.542;12.270;2022-11-15T12:00:01;12.60;99.90
20524;DHT22;10420;48.542;12.270;2022-11-15T12:05:31;12.60;99.90
20524;DHT22;10420;48.542;12.270;2022-11-15T12:10:35;12.60;99.90
20524;DHT22;10420;48.542;12.270;2022-11-15T12:15:41;12.60;99.90
20524;DHT22;10420;48.542;12.270;2022-11-15T12:20:57;12.70;99.90
20524;DHT22;10420;48.542;12.270;2022-11-15T12:26:14;12.70;99.90
20524;DHT22;10420;48.542;12.270;2022-11-15T12:31:38;12.60;99.90
20524;DHT22;10420;48.542;12.270;2022-11-15T12:36:43;12.70;99.90
20524;DHT22;10420;48.542;12.270;2022-11-15T12:47:26;12.60;99.90
20524;DHT22;10420;48.542;12.270;2022-11-15T12:52:27;12.60;99.90
20524;DHT22;10420;48.542;12.270;2022-11-15T12:57:30;12.50;99.90
20524;DHT22;10420;48.542;12.270;2022-11-15T13:02:33;12.60;99.90
20524;DHT22;10420;48.542;12.270;2022-11-15T13:17:53;12.40;99.90
20524;DHT22;10420;48.542;12.270;2022-11-15T13:23:13;12.30;99.90
20524;DHT22;10420;48.542;12.270;2022-11-15T13:38:26;12.20;99.90
20524;DHT22;10420;48.542;12.270;2022-11-15T13:43:36;12.20;99.90
20524;DHT22;10420;48.542;12.270;2022-11-15T13:48:37;12.00;99.90
20524;DHT22;10420;48.542;12.270;2022-11-15T13:53:40;12.00;99.90
20524;DHT22;10420;48.542;12.270;2022-11-15T13:58:42;11.80;99.90
20524;DHT22;10420;48.542;12.270;2022-11-15T14:04:13;12.00;99.90
20524;DHT22;10420;48.542;12.270;2022-11-15T14:14:19;11.80;99.90
20524;DHT22;10420;48.542;12.270;2022-11-15T14:24:21;11.40;99.90
20524;DHT22;10420;48.542;12.270;2022-11-15T14:29:26;10.90;99.90
20524;DHT22;10420;48.542;12.270;2022-11-15T14:34:27;10.80;99.90
20524;DHT22;10420;48.542;12.270;2022-11-15T14:39:27;10.60;99.90
20524;DHT22;10420;48.542;12.270;2022-11-15T14:44:28;10.20;99.90
20524;DHT22;10420;48.542;12.270;2022-11-15T14:49:29;10.00;99.90
20524;DHT22;10420;48.542;12.270;2022-11-15T14:54:29;9.70;99.90
20524;DHT22;10420;48.542;12.270;2022-11-15T14:59:30;9.40;99.90
20524;DHT22;10420;48.542;12.270;2022-11-15T15:04:30;9.40;99.90
20524;DHT22;10420;48.542;12.270;2022-11-15T15:09:31;9.30;99.90
20524;DHT22;10420;48.542;12.270;2022-11-15T15:14:32;8.90;99.90
20524;DHT22;10420;48.542;12.270;2022-11-15T15:19:32;8.70;99.90
20524;DHT22;10420;48.542;12.270;2022-11-15T15:24:33;8.40;99.90
20524;DHT22;10420;48.542;12.270;2022-11-15T15:29:34;8.20;99.90
20524;DHT22;10420;48.542;12.270;2022-11-15T15:34:34;7.90;99.90
20524;DHT22;10420;48.542;12.270;2022-11-15T15:39:35;7.80;99.90
20524;DHT22;10420;48.542;12.270;2022-11-15T15:44:36;7.50;99.90
20524;DHT22;10420;48.542;12.270;2022-11-15T15:49:36;7.40;99.90
20524;DHT22;10420;48.542;12.270;2022-11-15T15:54:37;7.30;99.90
20524;DHT22;10420;48.542;12.270;2022-11-15T15:59:38;7.10;99.90
20524;DHT22;10420;48.542;12.270;2022-11-15T16:04:39;6.80;99.90
20524;DHT22;10420;48.542;12.270;2022-11-15T16:09:40;6.60;99.90
20524;DHT22;10420;48.542;12.270;2022-11-15T16:15:00;6.40;99.90
20524;DHT22;10420;48.542;12.270;2022-11-15T16:20:01;6.60;99.90
20524;DHT22;10420;48.542;12.270;2022-11-15T16:25:03;6.40;99.90
20524;DHT22;10420;48.542;12.270;2022-11-15T16:30:04;6.10;99.90
20524;DHT22;10420;48.542;12.270;2022-11-15T16:35:05;6.00;99.90
20524;DHT22;10420;48.542;12.270;2022-11-15T16:40:27;5.80;99.90
20524;DHT22;10420;48.542;12.270;2022-11-15T16:45:28;5.90;99.90
20524;DHT22;10420;48.542;12.270;2022-11-15T16:50:32;5.80;99.90
20524;DHT22;10420;48.542;12.270;2022-11-15T16:55:34;5.50;99.90
20524;DHT22;10420;48.542;12.270;2022-11-15T17:00:35;5.40;99.90
20524;DHT22;10420;48.542;12.270;2022-11-15T17:05:35;5.40;99.90
20524;DHT22;10420;48.542;12.270;2022-11-15T17:10:38;5.40;99.90
20524;DHT22;10420;48.542;12.270;2022-11-15T17:15:43;5.40;99.90
20524;DHT22;10420;48.542;12.270;2022-11-15T17:20:44;5.10;99.90
20524;DHT22;10420;48.542;12.270;2022-11-15T17:25:44;5.10;99.90
20524;DHT22;10420;48.542;12.270;2022-11-15T17:30:45;5.00;99.90
20524;DHT22;10420;48.542;12.270;2022-11-15T17:35:46;4.80;99.90
20524;DHT22;10420;48.542;12.270;2022-11-15T17:40:46;4.70;99.90
20524;DHT22;10420;48.542;12.270;2022-11-15T17:45:48;4.80;99.90
20524;DHT22;10420;48.542;12.270;2022-11-15T17:50:59;4.70;99.90
20524;DHT22;10420;48.542;12.270;2022-11-15T17:56:02;4.70;99.90
20524;DHT22;10420;48.542;12.270;2022-11-15T18:06:23;4.50;99.90
20524;DHT22;10420;48.542;12.270;2022-11-15T18:11:29;4.60;99.90
20524;DHT22;10420;48.542;12.270;2022-11-15T18:16:32;4.70;99.90
20524;DHT22;10420;48.542;12.270;2022-11-15T18:21:33;4.60;99.90
20524;DHT22;10420;48.542;12.270;2022-11-15T18:26:34;4.70;99.90
20524;DHT22;10420;48.542;12.270;2022-11-15T18:31:34;4.70;99.90
20524;DHT22;10420;48.542;12.270;2022-11-15T18:36:35;4.60;99.90
20524;DHT22;10420;48.542;12.270;2022-11-15T18:41:35;4.70;99.90
20524;DHT22;10420;48.542;12.270;2022-11-15T18:46:36;4.60;99.90
20524;DHT22;10420;48.542;12.270;2022-11-15T18:51:39;4.50;99.90
20524;DHT22;10420;48.542;12.270;2022-11-15T18:56:42;4.60;99.90
20524;DHT22;10420;48.542;12.270;2022-11-15T19:01:46;4.60;99.90
20524;DHT22;10420;48.542;12.270;2022-11-15T19:06:49;4.50;99.90
20524;DHT22;10420;48.542;12.270;2022-11-15T19:11:49;4.50;99.90
20524;DHT22;10420;48.542;12.270;2022-11-15T19:16:50;4.50;99.90
20524;DHT22;10420;48.542;12.270;2022-11-15T19:21:51;4.50;99.90
20524;DHT22;10420;48.542;12.270;2022-11-15T19:26:52;4.50;99.90
20524;DHT22;10420;48.542;12.270;2022-11-15T19:31:54;4.60;99.90
20524;DHT22;10420;48.542;12.270;2022-11-15T19:36:54;4.40;99.90
20524;DHT22;10420;48.542;12.270;2022-11-15T19:41:55;4.40;99.90
20524;DHT22;10420;48.542;12.270;2022-11-15T19:46:56;4.30;99.90
20524;DHT22;10420;48.542;12.270;2022-11-15T19:51:56;4.40;99.90
20524;DHT22;10420;48.542;12.270;2022-11-15T19:56:57;4.60;99.90
20524;DHT22;10420;48.542;12.270;2022-11-15T20:01:57;4.50;99.90
20524;DHT22;10420;48.542;12.270;2022-11-15T20:06:58;4.50;99.90
20524;DHT22;10420;48.542;12.270;2022-11-15T20:11:59;4.60;99.90
20524;DHT22;10420;48.542;12.270;2022-11-15T20:16:59;4.60;99.90
20524;DHT22;10420;48.542;12.270;2022-11-15T20:22:00;4.60;99.90
20524;DHT22;10420;48.542;12.270;2022-11-15T20:27:01;4.90;99.90
20524;DHT22;10420;48.542;12.270;2022-11-15T20:32:01;4.80;99.90
20524;DHT22;10420;48.542;12.270;2022-11-15T20:37:02;4.90;99.90
20524;DHT22;10420;48.542;12.270;2022-11-15T20:42:03;5.00;99.90
20524;DHT22;10420;48.542;12.270;2022-11-15T20:47:03;5.20;99.90
20524;DHT22;10420;48.542;12.270;2022-11-15T20:52:05;5.30;99.90
20524;DHT22;10420;48.542;12.270;2022-11-15T20:57:06;5.30;99.90
20524;DHT22;10420;48.542;12.270;2022-11-15T21:02:13;5.30;99.90
20524;DHT22;10420;48.542;12.270;2022-11-15T21:07:14;5.40;99.90
20524;DHT22;10420;48.542;12.270;2022-11-15T21:12:14;5.60;99.90
20524;DHT22;10420;48.542;12.270;2022-11-15T21:17:15;5.60;99.90
20524;DHT22;10420;48.542;12.270;2022-11-15T21:22:16;5.80;99.90
20524;DHT22;10420;48.542;12.270;2022-11-15T21:27:17;5.80;99.90
20524;DHT22;10420;48.542;12.270;2022-11-15T21:32:18;5.80;99.90
20524;DHT22;10420;48.542;12.270;2022-11-15T21:37:19;5.70;99.90
20524;DHT22;10420;48.542;12.270;2022-11-15T21:42:20;5.60;99.90
20524;DHT22;10420;48.542;12.270;2022-11-15T21:47:20;5.50;99.90
20524;DHT22;10420;48.542;12.270;2022-11-15T21:52:21;5.40;99.90
20524;DHT22;10420;48.542;12.270;2022-11-15T21:57:21;5.50;99.90
20524;DHT22;10420;48.542;12.270;2022-11-15T22:02:22;5.30;99.90
20524;DHT22;10420;48.542;12.270;2022-11-15T22:07:23;5.20;99.90
20524;DHT22;10420;48.542;12.270;2022-11-15T22:12:23;5.10;99.90
20524;DHT22;10420;48.542;12.270;2022-11-15T22:17:24;4.90;99.90
20524;DHT22;10420;48.542;12.270;2022-11-15T22:22:45;4.90;99.90
20524;DHT22;10420;48.542;12.270;2022-11-15T22:27:45;4.90;99.90
20524;DHT22;10420;48.542;12.270;2022-11-15T22:32:46;4.80;99.90
20524;DHT22;10420;48.542;12.270;2022-11-15T22:37:47;4.80;99.90
20524;DHT22;10420;48.542;12.270;2022-11-15T22:42:47;4.60;99.90
20524;DHT22;10420;48.542;12.270;2022-11-15T22:47:48;4.70;99.90
20524;DHT22;10420;48.542;12.270;2022-11-15T22:52:49;4.60;99.90
20524;DHT22;10420;48.542;12.270;2022-11-15T22:57:49;4.50;99.90
20524;DHT22;10420;48.542;12.270;2022-11-15T23:02:50;4.50;99.90
20524;DHT22;10420;48.542;12.270;2022-11-15T23:07:51;4.40;99.90
20524;DHT22;10420;48.542;12.270;2022-11-15T23:12:52;4.40;99.90
20524;DHT22;10420;48.542;12.270;2022-11-15T23:18:11;4.40;99.90
20524;DHT22;10420;48.542;12.270;2022-11-15T23:23:12;4.50;99.90
20524;DHT22;10420;48.542;12.270;2022-11-15T23:28:13;4.60;99.90
20524;DHT22;10420;48.542;12.270;2022-11-15T23:33:14;4.70;99.90
20524;DHT22;10420;48.542;12.270;2022-11-15T23:38:37;4.60;99.90
20524;DHT22;10420;48.542;12.270;2022-11-15T23:43:37;4.70;99.90
20524;DHT22;10420;48.542;12.270;2022-11-15T23:48:38;4.70;99.90
20524;DHT22;10420;48.542;12.270;2022-11-15T23:53:39;4.90;99.90
20524;DHT22;10420;48.542;12.270;2022-11-15T23:58:40;4.60;99.90
